Connellys Springs, North Carolina
Current Conditions -  °F | °C
As of 8:53 PM on Wednesday 22 Oct 2014 (Local Time) from KHKY Reporting Station
Clear Clear  
Wind Chill: 45°   Ceiling: Unl
Heat Index: 48°   Visibility: 10mi
Dew Point: 38°   Wind: 6mph
Humidity: 68%   Direction: 310°NW
Pressure: 30.1"   Gusts: NA
Location:  35.74°N, 81.51°W
Report Text: KHKY 230053Z AUTO 31005KT 10SM CLR 09/03 A3010 RMK AO2 SLP185 T00890033
Loading
Personal Weather Stations






























Interactive Weather Map
Tropical Storm Tracking
New forecast layout! Learn more

10-Day Weather Forecast

Advertisements
Track Severe Weather on mobile